aviador You're here:

LFMP Decoded Metar

Perpignan in FRANCE
Report Time2017-12-16 16:30:00
UTC Time2017-12-16 16:44:03
Flight Rules vfr VFR
Wind330° at 13 kt
W.Decomp.*RWY 33: 13.0 kt HW 0 kt LCW
RWY 31: 12.2 kt HW 4.4 kt RCW
W.Rank330° ranks 4
Current wind is above 330° avg. (11.5)
Visibility9999 m
Phenomena:N/A
Clouds:N/A
Expected CloudBase > 4,000 ft AGL from Temp-Dew spread
CeilingNone
Temp08°C (ISA -7)
Dew Point-2°C (50% RH)
AAT1.1°C
QNH1020 hPa
Density Alt-807 ft
Elevation157 ft
Report Wrong Elevation
Raw Report
LFMP 161630Z AUTO 33013KT 290V350 CAVOK 08/M02 Q1020 TEMPO
31025G40KT=

Extra information for LFMP:More info

Metar Taf Metar & Taf Last 4 Metars F.Rules Stats Wind Profile Meteogram Temp Stats Airport Information Weather charts Add Link Nearby VenuesMetar ALERT Operation Metar Decoded Social comments